createdAt,value
2023-04-28T00:00:44.724Z,100810.44
2023-04-28T00:03:13.480Z,100806.03
2023-04-28T00:05:42.203Z,100806.06
2023-04-28T00:08:10.632Z,100805.75
2023-04-28T00:10:38.933Z,100806.28
2023-04-28T00:13:07.307Z,100795.41
2023-04-28T00:15:36.119Z,100788.53
2023-04-28T00:18:04.440Z,100795.53
2023-04-28T00:20:32.935Z,100791.63
2023-04-28T00:23:01.315Z,100792.38
2023-04-28T00:25:29.593Z,100797.91
2023-04-28T00:27:57.904Z,100803.09
2023-04-28T00:30:26.192Z,100794.00
2023-04-28T00:32:54.633Z,100794.53
2023-04-28T00:35:23.147Z,100801.22
2023-04-28T00:37:51.646Z,100802.25
2023-04-28T00:40:19.924Z,100794.75
2023-04-28T00:42:48.636Z,100803.31
2023-04-28T00:45:17.179Z,100810.44
2023-04-28T00:47:46.083Z,100801.22
2023-04-28T00:50:14.814Z,100807.34
2023-04-28T00:52:44.658Z,100803.59
2023-04-28T00:55:16.287Z,100801.03
2023-04-28T00:57:44.671Z,100815.69
2023-04-28T01:00:13.604Z,100802.31
2023-04-28T01:02:42.072Z,100812.00
2023-04-28T01:05:11.290Z,100818.94
2023-04-28T01:07:39.955Z,100814.41
2023-04-28T01:10:09.012Z,100811.09
2023-04-28T01:12:37.726Z,100813.41
2023-04-28T01:15:06.585Z,100813.22
2023-04-28T01:17:35.221Z,100820.78
2023-04-28T01:20:03.775Z,100824.44
2023-04-28T01:22:32.573Z,100817.50
2023-04-28T01:25:01.209Z,100823.81
2023-04-28T01:27:29.585Z,100826.41
2023-04-28T01:29:59.386Z,100825.94
2023-04-28T01:32:27.684Z,100829.31
2023-04-28T01:34:55.955Z,100823.38
2023-04-28T01:37:24.845Z,100826.31
2023-04-28T01:39:53.213Z,100827.06
2023-04-28T01:42:21.554Z,100831.97
2023-04-28T01:44:49.817Z,100832.72
2023-04-28T01:47:18.051Z,100832.31
2023-04-28T01:49:48.400Z,100831.66
2023-04-28T01:52:16.693Z,100833.97
2023-04-28T01:54:45.014Z,100832.56
2023-04-28T01:57:14.424Z,100834.75
2023-04-28T01:59:44.132Z,100839.50
2023-04-28T02:02:12.526Z,100841.81
2023-04-28T02:04:41.200Z,100835.22
2023-04-28T02:07:09.410Z,100842.69
2023-04-28T02:09:37.659Z,100837.38
2023-04-28T02:12:06.091Z,100848.41
2023-04-28T02:14:34.321Z,100844.09
2023-04-28T02:17:04.150Z,100842.91
2023-04-28T02:19:32.789Z,100847.75
2023-04-28T02:22:01.121Z,100852.13
2023-04-28T02:24:29.371Z,100844.13
2023-04-28T02:26:58.183Z,100844.09
2023-04-28T02:29:28.715Z,100839.22
2023-04-28T02:31:57.402Z,100848.16
2023-04-28T02:34:25.715Z,100849.41
2023-04-28T02:36:53.981Z,100855.94
2023-04-28T02:39:27.641Z,100858.63
2023-04-28T02:41:55.927Z,100859.81
2023-04-28T02:44:24.179Z,100861.47
2023-04-28T02:46:52.485Z,100868.84
2023-04-28T02:49:20.699Z,100865.28
2023-04-28T02:51:48.931Z,100865.97
2023-04-28T02:54:17.389Z,100874.03
2023-04-28T02:56:46.082Z,100878.22
2023-04-28T02:59:14.359Z,100877.91
2023-04-28T03:01:42.747Z,100879.78
2023-04-28T03:04:11.237Z,100878.13
2023-04-28T03:06:39.583Z,100888.00
2023-04-28T03:09:07.857Z,100889.44
2023-04-28T03:11:36.241Z,100888.22
2023-04-28T03:14:04.483Z,100890.56
2023-04-28T03:16:33.187Z,100895.50
2023-04-28T03:19:01.664Z,100894.16
2023-04-28T03:21:29.871Z,100895.03
2023-04-28T03:23:58.050Z,100893.94
2023-04-28T03:26:26.299Z,100900.22
2023-04-28T03:28:54.553Z,100901.78
2023-04-28T03:31:22.822Z,100908.03
2023-04-28T03:33:51.067Z,100912.44
2023-04-28T03:36:19.298Z,100916.59
2023-04-28T03:38:47.957Z,100920.28
2023-04-28T03:41:16.192Z,100924.31
2023-04-28T03:43:44.355Z,100923.81
2023-04-28T03:46:12.663Z,100919.22
2023-04-28T03:48:40.980Z,100928.78
2023-04-28T03:51:09.204Z,100925.59
2023-04-28T03:53:37.414Z,100931.19
2023-04-28T03:56:05.861Z,100939.94
2023-04-28T03:58:34.092Z,100934.88
2023-04-28T04:01:02.576Z,100941.72
2023-04-28T04:03:31.272Z,100942.28
2023-04-28T04:06:00.217Z,100947.38
2023-04-28T04:08:28.946Z,100945.88
2023-04-28T04:10:57.220Z,100945.16
2023-04-28T04:13:25.464Z,100950.78
2023-04-28T04:15:53.881Z,100956.72
2023-04-28T04:18:22.200Z,100964.19
2023-04-28T04:20:51.353Z,100963.41
2023-04-28T04:23:19.556Z,100971.22
2023-04-28T04:25:48.193Z,100986.00
2023-04-28T04:28:17.073Z,100981.91
2023-04-28T04:30:46.126Z,100982.53
2023-04-28T04:33:14.344Z,100985.03
2023-04-28T04:35:42.681Z,100988.03
2023-04-28T04:38:11.342Z,100991.19
2023-04-28T04:40:39.533Z,100982.44
2023-04-28T04:43:07.734Z,100982.88
2023-04-28T04:45:36.040Z,100990.75
2023-04-28T04:48:04.652Z,101001.38
2023-04-28T04:50:32.870Z,101000.63
2023-04-28T04:53:01.087Z,101008.16
2023-04-28T04:55:29.479Z,101014.72
2023-04-28T04:57:57.730Z,101011.47
2023-04-28T05:00:26.005Z,101018.28
2023-04-28T05:02:54.542Z,101024.25
2023-04-28T05:05:23.199Z,101021.19
2023-04-28T05:07:52.146Z,101029.47
2023-04-28T05:10:20.433Z,101031.19
2023-04-28T05:12:49.286Z,101028.47
2023-04-28T05:15:17.763Z,101030.63
2023-04-28T05:17:46.337Z,101036.31
2023-04-28T05:20:14.661Z,101040.09
2023-04-28T05:22:42.857Z,101035.13
2023-04-28T05:25:11.269Z,101033.50
2023-04-28T05:27:40.500Z,101033.06
2023-04-28T05:30:12.076Z,101041.50
2023-04-28T05:32:40.303Z,101041.16
2023-04-28T05:35:08.883Z,101041.53
2023-04-28T05:37:38.614Z,101040.91
2023-04-28T05:40:08.763Z,101042.47
2023-04-28T05:42:37.269Z,101042.88
2023-04-28T05:45:07.702Z,101047.44
2023-04-28T05:47:36.210Z,101046.03
2023-04-28T05:50:04.576Z,101049.78
2023-04-28T05:52:32.791Z,101042.06
2023-04-28T05:55:01.000Z,101044.13
2023-04-28T05:57:32.034Z,101045.03
2023-04-28T06:00:04.937Z,101046.41
2023-04-28T06:02:33.341Z,101045.72
2023-04-28T06:05:01.938Z,101055.13
2023-04-28T06:07:30.425Z,101058.09
2023-04-28T06:09:58.613Z,101048.38
2023-04-28T06:12:27.161Z,101053.34
2023-04-28T06:14:56.293Z,101046.47
2023-04-28T06:17:25.032Z,101052.28
2023-04-28T06:19:55.289Z,101054.34
2023-04-28T06:22:23.471Z,101055.38
2023-04-28T06:24:51.639Z,101051.34
2023-04-28T06:27:20.032Z,101055.44
2023-04-28T06:29:48.470Z,101053.78
2023-04-28T06:32:16.713Z,101051.88
2023-04-28T06:34:44.960Z,101055.53
2023-04-28T06:37:13.372Z,101058.13
2023-04-28T06:39:41.672Z,101062.72
2023-04-28T06:42:09.879Z,101062.03
2023-04-28T06:44:38.075Z,101065.66
2023-04-28T06:47:06.624Z,101064.03
2023-04-28T06:49:34.909Z,101060.63
2023-04-28T06:52:03.123Z,101069.22
2023-04-28T06:54:31.966Z,101070.38
2023-04-28T06:57:00.323Z,101067.75
2023-04-28T06:59:28.704Z,101069.75
2023-04-28T07:01:57.884Z,101067.53
2023-04-28T07:04:26.295Z,101061.72
2023-04-28T07:06:54.847Z,101065.47
2023-04-28T07:11:51.570Z,101074.63
2023-04-28T07:14:19.928Z,101077.47
2023-04-28T07:16:48.773Z,101082.31
2023-04-28T07:19:17.224Z,101075.56
2023-04-28T07:21:46.204Z,101069.66
2023-04-28T07:24:14.559Z,101074.41
2023-04-28T07:26:42.879Z,101076.47
2023-04-28T07:29:14.275Z,101076.72
2023-04-28T07:31:42.598Z,101075.25
2023-04-28T07:34:10.839Z,101070.13
2023-04-28T07:36:39.038Z,101078.56
2023-04-28T07:39:07.869Z,101079.69
2023-04-28T07:41:39.755Z,101066.53
2023-04-28T07:44:09.093Z,101076.47
2023-04-28T07:46:37.777Z,101078.34
2023-04-28T07:49:06.238Z,101068.50
2023-04-28T07:51:34.676Z,101076.53
2023-04-28T07:54:02.911Z,101073.00
2023-04-28T07:56:31.875Z,101065.91
2023-04-28T07:59:00.107Z,101071.28
2023-04-28T08:01:28.399Z,101073.47
2023-04-28T08:03:56.798Z,101065.06
2023-04-28T08:06:25.296Z,101067.06
2023-04-28T08:08:53.547Z,101060.81
2023-04-28T08:11:23.240Z,101062.56
2023-04-28T08:13:51.430Z,101064.63
2023-04-28T08:16:20.482Z,101059.41
2023-04-28T08:18:49.232Z,101053.53
2023-04-28T08:21:17.536Z,101060.00
2023-04-28T08:23:45.759Z,101054.84
2023-04-28T08:26:14.246Z,101056.72
2023-04-28T08:28:42.490Z,101056.72
2023-04-28T08:31:10.802Z,101056.72
2023-04-28T08:33:39.890Z,101051.69
2023-04-28T08:36:08.781Z,101053.72
2023-04-28T08:38:36.977Z,101050.44
2023-04-28T08:41:06.131Z,101052.25
2023-04-28T08:43:36.944Z,101052.47
2023-04-28T08:46:08.963Z,101044.69
2023-04-28T08:48:42.495Z,101038.59
2023-04-28T08:51:15.108Z,101041.50
2023-04-28T08:54:11.715Z,101038.94
2023-04-28T08:56:38.505Z,101033.72
2023-04-28T08:59:06.709Z,101032.00
2023-04-28T09:01:35.448Z,101029.31
2023-04-28T09:04:04.628Z,101031.03
2023-04-28T09:06:38.259Z,101028.50
2023-04-28T09:09:34.228Z,101021.53
2023-04-28T09:12:05.431Z,101023.47
2023-04-28T09:14:36.125Z,101019.41
2023-04-28T09:17:10.438Z,101020.47
2023-04-28T09:19:40.245Z,101016.13
2023-04-28T09:22:24.864Z,101022.44
2023-04-28T09:24:55.973Z,101020.78
2023-04-28T09:27:30.298Z,101024.38
2023-04-28T09:29:58.513Z,101019.13
2023-04-28T09:32:28.809Z,101017.44
2023-04-28T09:35:00.501Z,101019.50
2023-04-28T09:37:32.544Z,101019.81
2023-04-28T09:40:08.138Z,101023.56
2023-04-28T09:42:40.734Z,101023.00
2023-04-28T09:45:10.941Z,101025.91
2023-04-28T09:47:41.825Z,101025.28
2023-04-28T09:50:13.625Z,101019.22
2023-04-28T09:52:47.037Z,101020.41
2023-04-28T09:55:16.260Z,101030.41
2023-04-28T09:57:50.060Z,101020.97
2023-04-28T10:00:19.628Z,101021.09
2023-04-28T10:02:50.804Z,101017.72
2023-04-28T10:05:19.448Z,101021.38
2023-04-28T10:07:48.292Z,101026.09
2023-04-28T10:10:17.175Z,101019.22
2023-04-28T10:12:45.916Z,101023.84
2023-04-28T10:15:15.041Z,101017.72
2023-04-28T10:17:43.304Z,101027.66
2023-04-28T10:20:12.779Z,101025.13
2023-04-28T10:22:53.385Z,101027.00
2023-04-28T10:25:36.985Z,101025.41
2023-04-28T10:28:09.716Z,101020.28
2023-04-28T10:30:38.901Z,101027.53
2023-04-28T10:33:16.287Z,101032.09
2023-04-28T10:35:48.653Z,101026.88
2023-04-28T10:38:18.056Z,101031.47
2023-04-28T10:40:48.485Z,101035.00
2023-04-28T10:43:36.022Z,101022.78
2023-04-28T10:46:08.438Z,101035.28
2023-04-28T10:48:40.755Z,101027.44
2023-04-28T10:51:10.414Z,101028.34
2023-04-28T10:53:49.132Z,101029.31
2023-04-28T10:56:27.843Z,101033.03
2023-04-28T10:58:57.856Z,101027.03
2023-04-28T11:01:27.911Z,101033.44
2023-04-28T11:04:16.833Z,101033.56
2023-04-28T11:06:47.834Z,101032.69
2023-04-28T11:09:16.018Z,101030.03
2023-04-28T11:11:59.073Z,101029.13
2023-04-28T11:14:27.214Z,101039.78
2023-04-28T11:17:03.776Z,101040.88
2023-04-28T11:19:40.029Z,101041.22
2023-04-28T11:22:19.659Z,101041.41
2023-04-28T11:25:01.853Z,101043.13
2023-04-28T11:27:35.319Z,101044.94
2023-04-28T11:30:03.679Z,101038.00
2023-04-28T11:32:36.674Z,101031.97
2023-04-28T11:35:10.561Z,101037.50
2023-04-28T11:37:39.894Z,101030.53
2023-04-28T11:40:15.099Z,101034.25
2023-04-28T11:42:50.212Z,101042.34
2023-04-28T11:45:18.563Z,101043.22
2023-04-28T11:47:47.167Z,101040.53
2023-04-28T11:50:16.633Z,101038.75
2023-04-28T11:52:53.625Z,101044.16
2023-04-28T11:55:22.564Z,101044.25
2023-04-28T11:57:51.014Z,101049.59
2023-04-28T12:00:22.754Z,101045.28
2023-04-28T12:02:51.725Z,101041.00
2023-04-28T12:05:22.962Z,101047.47
2023-04-28T12:07:51.277Z,101041.38
2023-04-28T12:10:20.637Z,101045.84
2023-04-28T12:12:52.820Z,101042.41
2023-04-28T12:15:22.879Z,101054.81
2023-04-28T12:17:51.907Z,101050.56
2023-04-28T12:20:39.224Z,101055.25
2023-04-28T12:23:08.851Z,101056.28
2023-04-28T12:25:45.749Z,101061.72
2023-04-28T12:28:14.264Z,101057.25
2023-04-28T12:30:45.352Z,101051.06
2023-04-28T12:33:28.128Z,101059.84
2023-04-28T12:35:58.301Z,101057.44
2023-04-28T12:38:28.005Z,101066.47
2023-04-28T12:40:56.575Z,101061.22
2023-04-28T12:43:25.034Z,101062.19
2023-04-28T12:45:57.323Z,101064.84
2023-04-28T12:48:26.003Z,101072.97
2023-04-28T12:50:54.305Z,101075.69
2023-04-28T12:53:22.556Z,101076.78
2023-04-28T12:55:50.808Z,101076.00
2023-04-28T12:58:19.243Z,101073.25
2023-04-28T13:00:47.865Z,101079.53
2023-04-28T13:03:16.651Z,101072.50
2023-04-28T13:05:45.164Z,101083.22
2023-04-28T13:08:14.838Z,101081.50
2023-04-28T13:10:43.516Z,101079.81
2023-04-28T13:13:11.835Z,101083.47
2023-04-28T13:15:40.262Z,101093.25
2023-04-28T13:18:08.905Z,101092.41
2023-04-28T13:20:37.089Z,101093.44
2023-04-28T13:23:05.277Z,101090.84
2023-04-28T13:25:33.512Z,101096.22
2023-04-28T13:28:02.566Z,101092.69
2023-04-28T13:30:30.760Z,101104.31
2023-04-28T13:32:59.366Z,101114.22
2023-04-28T13:35:28.074Z,101114.38
2023-04-28T13:38:02.868Z,101118.84
2023-04-28T13:40:31.413Z,101121.56
2023-04-28T13:42:59.650Z,101125.03
2023-04-28T13:45:28.020Z,101130.41
2023-04-28T13:47:56.546Z,101139.34
2023-04-28T13:50:24.823Z,101140.97
2023-04-28T13:52:53.618Z,101140.91
2023-04-28T13:55:28.397Z,101143.50
2023-04-28T13:57:57.447Z,101154.13
2023-04-28T14:00:25.679Z,101150.53
2023-04-28T14:02:54.117Z,101154.00
2023-04-28T14:05:23.178Z,101158.34
2023-04-28T14:07:51.691Z,101153.78
2023-04-28T14:10:20.001Z,101156.31
2023-04-28T14:12:48.828Z,101161.41
2023-04-28T14:15:18.881Z,101158.44
2023-04-28T14:17:47.412Z,101160.06
2023-04-28T14:20:15.639Z,101162.47
2023-04-28T14:22:44.088Z,101164.88
2023-04-28T14:25:12.373Z,101168.25
2023-04-28T14:27:40.808Z,101176.81
2023-04-28T14:30:09.809Z,101172.09
2023-04-28T14:32:40.991Z,101185.00
2023-04-28T14:35:10.377Z,101176.69
2023-04-28T14:37:38.760Z,101177.13
2023-04-28T14:40:08.038Z,101183.84
2023-04-28T14:42:38.097Z,101179.06
2023-04-28T14:45:11.552Z,101183.16
2023-04-28T14:47:41.209Z,101183.81
2023-04-28T14:50:10.949Z,101181.69
2023-04-28T14:52:40.246Z,101185.78
2023-04-28T14:55:08.841Z,101181.91
2023-04-28T14:57:38.546Z,101186.13
2023-04-28T15:00:08.808Z,101185.88
2023-04-28T15:02:38.005Z,101192.69
2023-04-28T15:05:06.937Z,101194.09
2023-04-28T15:07:35.436Z,101192.03
2023-04-28T15:10:03.712Z,101189.91
2023-04-28T15:12:32.904Z,101194.72
2023-04-28T15:15:01.347Z,101197.78
2023-04-28T15:17:29.625Z,101203.34
2023-04-28T15:19:58.130Z,101203.75
2023-04-28T15:22:26.692Z,101206.03
2023-04-28T15:24:56.234Z,101205.69
2023-04-28T15:27:24.698Z,101206.97
2023-04-28T15:29:53.122Z,101196.72
2023-04-28T15:32:24.381Z,101197.53
2023-04-28T15:34:52.866Z,101198.00
2023-04-28T15:37:42.381Z,101203.75
2023-04-28T15:40:13.106Z,101202.34
2023-04-28T15:42:49.658Z,101199.22
2023-04-28T15:45:19.300Z,101194.13
2023-04-28T15:47:51.932Z,101193.88
2023-04-28T15:50:21.346Z,101194.41
2023-04-28T15:52:50.855Z,101196.78
2023-04-28T15:55:20.781Z,101196.16
2023-04-28T15:57:49.963Z,101194.53
2023-04-28T16:00:18.436Z,101194.03
2023-04-28T16:02:47.830Z,101192.09
2023-04-28T16:05:16.352Z,101190.97
2023-04-28T16:07:45.315Z,101190.50
2023-04-28T16:10:15.501Z,101189.06
2023-04-28T16:12:44.313Z,101189.03
2023-04-28T16:15:13.680Z,101185.72
2023-04-28T16:17:42.602Z,101187.09
2023-04-28T16:20:12.497Z,101183.91
2023-04-28T16:22:42.453Z,101181.56
2023-04-28T16:25:11.369Z,101186.78
2023-04-28T16:27:41.564Z,101179.44
2023-04-28T16:30:10.864Z,101184.47
2023-04-28T16:32:39.228Z,101181.00
2023-04-28T16:35:13.050Z,101175.00
2023-04-28T16:37:43.860Z,101172.41
2023-04-28T16:40:13.336Z,101176.91
2023-04-28T16:42:42.939Z,101169.59
2023-04-28T16:45:12.240Z,101176.72
2023-04-28T16:47:45.294Z,101169.78
2023-04-28T16:50:17.392Z,101172.88
2023-04-28T16:52:46.211Z,101171.91
2023-04-28T16:55:14.488Z,101176.91
2023-04-28T16:57:42.789Z,101172.69
2023-04-28T17:00:11.906Z,101175.41
2023-04-28T17:02:40.259Z,101173.53
2023-04-28T17:05:09.114Z,101180.03
2023-04-28T17:07:37.395Z,101173.97
2023-04-28T17:10:05.987Z,101170.59
2023-04-28T17:12:34.267Z,101172.31
2023-04-28T17:15:02.716Z,101174.78
2023-04-28T17:17:30.991Z,101172.06
2023-04-28T17:20:00.717Z,101177.25
2023-04-28T17:22:31.518Z,101177.66
2023-04-28T17:25:00.157Z,101174.19
2023-04-28T17:27:28.421Z,101173.59
2023-04-28T17:29:56.783Z,101179.69
2023-04-28T17:32:25.144Z,101181.25
2023-04-28T17:34:53.998Z,101187.66
2023-04-28T17:37:22.369Z,101183.38
2023-04-28T17:39:53.481Z,101178.75
2023-04-28T17:42:21.909Z,101177.56
2023-04-28T17:44:50.338Z,101183.50
2023-04-28T17:47:18.714Z,101184.03
2023-04-28T17:49:47.207Z,101194.97
2023-04-28T17:52:16.336Z,101188.91
2023-04-28T17:54:44.598Z,101192.91
2023-04-28T17:57:13.934Z,101201.75
2023-04-28T17:59:43.436Z,101197.22
2023-04-28T18:02:12.553Z,101202.09
2023-04-28T18:04:41.114Z,101206.19
2023-04-28T18:07:09.385Z,101205.66
2023-04-28T18:09:37.802Z,101195.50
2023-04-28T18:12:06.429Z,101199.19
2023-04-28T18:14:34.824Z,101210.19
2023-04-28T18:17:03.042Z,101213.53
2023-04-28T18:19:31.402Z,101215.03
2023-04-28T18:21:59.758Z,101206.09
2023-04-28T18:24:28.226Z,101212.75
2023-04-28T18:26:56.494Z,101208.75
2023-04-28T18:29:24.745Z,101210.44
2023-04-28T18:31:53.398Z,101212.13
2023-04-28T18:34:22.104Z,101208.75
2023-04-28T18:36:50.840Z,101213.50
2023-04-28T18:39:19.326Z,101208.47
2023-04-28T18:41:47.870Z,101207.56
2023-04-28T18:44:16.091Z,101206.66
2023-04-28T18:46:44.327Z,101208.88
2023-04-28T18:49:14.460Z,101214.44
2023-04-28T18:51:42.862Z,101210.97
2023-04-28T18:54:11.229Z,101203.41
2023-04-28T18:56:39.498Z,101202.75
2023-04-28T18:59:08.853Z,101202.66
2023-04-28T19:01:37.744Z,101205.72
2023-04-28T19:04:06.389Z,101202.78
2023-04-28T19:06:34.849Z,101201.53
2023-04-28T19:09:03.507Z,101201.41
2023-04-28T19:11:31.808Z,101193.78
2023-04-28T19:14:00.024Z,101194.66
2023-04-28T19:16:28.284Z,101192.69
2023-04-28T19:18:56.704Z,101192.34
2023-04-28T19:21:25.653Z,101191.69
2023-04-28T19:23:54.496Z,101193.91
2023-04-28T19:26:22.783Z,101191.13
2023-04-28T19:28:51.111Z,101181.00
2023-04-28T19:31:19.401Z,101182.13
2023-04-28T19:33:48.082Z,101182.38
2023-04-28T19:36:16.309Z,101179.63
2023-04-28T19:38:44.566Z,101177.88
2023-04-28T19:41:13.506Z,101164.16
2023-04-28T19:43:41.920Z,101169.44
2023-04-28T19:46:10.181Z,101167.94
2023-04-28T19:48:38.403Z,101167.69
2023-04-28T19:51:06.822Z,101177.22
2023-04-28T19:53:36.334Z,101171.47
2023-04-28T19:56:04.809Z,101167.50
2023-04-28T19:58:34.324Z,101167.69
2023-04-28T20:01:02.624Z,101158.91
2023-04-28T20:03:31.053Z,101158.38
2023-04-28T20:06:00.083Z,101162.09
2023-04-28T20:08:29.224Z,101164.47
2023-04-28T20:10:57.502Z,101151.09
2023-04-28T20:13:27.908Z,101156.94
2023-04-28T20:15:56.695Z,101155.31
2023-04-28T20:18:25.000Z,101161.06
2023-04-28T20:20:56.664Z,101162.81
2023-04-28T20:23:25.037Z,101157.94
2023-04-28T20:25:53.476Z,101159.63
2023-04-28T20:28:21.775Z,101157.97
2023-04-28T20:30:50.026Z,101161.97
2023-04-28T20:33:18.644Z,101160.81
2023-04-28T20:35:47.126Z,101159.94
2023-04-28T20:38:15.445Z,101162.09
2023-04-28T20:40:45.050Z,101158.38
2023-04-28T20:43:13.271Z,101160.69
2023-04-28T20:45:42.800Z,101157.19
2023-04-28T20:48:11.680Z,101155.63
2023-04-28T20:50:41.795Z,101154.44
2023-04-28T20:53:10.534Z,101152.88
2023-04-28T20:55:38.806Z,101146.13
2023-04-28T20:58:08.384Z,101155.56
2023-04-28T21:00:40.834Z,101150.94
2023-04-28T21:03:16.121Z,101147.84
2023-04-28T21:05:47.575Z,101146.19
2023-04-28T21:08:15.965Z,101147.91
2023-04-28T21:10:44.318Z,101147.72
2023-04-28T21:13:13.866Z,101139.97
2023-04-28T21:15:42.401Z,101138.97
2023-04-28T21:18:10.641Z,101145.84
2023-04-28T21:20:38.930Z,101141.13
2023-04-28T21:23:08.348Z,101142.28
2023-04-28T21:25:37.544Z,101132.28
2023-04-28T21:28:06.089Z,101130.47
2023-04-28T21:30:34.295Z,101121.97
2023-04-28T21:33:02.785Z,101134.69
2023-04-28T21:35:31.138Z,101124.56
2023-04-28T21:37:59.466Z,101127.84
2023-04-28T21:40:27.810Z,101134.47
2023-04-28T21:42:56.427Z,101128.41
2023-04-28T21:45:24.813Z,101121.88
2023-04-28T21:47:53.094Z,101124.97
2023-04-28T21:50:21.354Z,101127.78
2023-04-28T21:52:49.558Z,101140.03
2023-04-28T21:55:17.893Z,101142.09
2023-04-28T21:57:46.611Z,101138.97
2023-04-28T22:00:15.477Z,101130.88
2023-04-28T22:02:44.263Z,101136.06
2023-04-28T22:05:12.748Z,101133.00
2023-04-28T22:07:41.027Z,101130.28
2023-04-28T22:10:10.618Z,101129.13
2023-04-28T22:12:39.467Z,101128.03
2023-04-28T22:15:08.392Z,101130.56
2023-04-28T22:17:36.660Z,101129.72
2023-04-28T22:20:06.130Z,101127.00
2023-04-28T22:22:34.449Z,101124.81
2023-04-28T22:25:02.859Z,101121.78
2023-04-28T22:27:31.483Z,101131.69
2023-04-28T22:29:59.756Z,101126.00
2023-04-28T22:32:28.467Z,101122.56
2023-04-28T22:34:56.841Z,101117.75
2023-04-28T22:37:25.060Z,101125.53
2023-04-28T22:39:53.527Z,101121.25
2023-04-28T22:42:21.982Z,101119.97
2023-04-28T22:44:50.261Z,101115.28
2023-04-28T22:47:18.870Z,101116.97
2023-04-28T22:49:47.460Z,101114.63
2023-04-28T22:52:15.703Z,101115.97
2023-04-28T22:54:43.979Z,101112.78
2023-04-28T22:57:12.461Z,101110.38
2023-04-28T22:59:40.668Z,101110.84
2023-04-28T23:02:09.714Z,101116.34
2023-04-28T23:04:38.104Z,101116.06
2023-04-28T23:07:08.141Z,101107.31
2023-04-28T23:09:38.069Z,101114.25
2023-04-28T23:12:06.873Z,101117.91
2023-04-28T23:14:35.329Z,101114.34
2023-04-28T23:17:03.664Z,101111.06
2023-04-28T23:19:32.577Z,101115.16
2023-04-28T23:22:01.224Z,101117.22
2023-04-28T23:24:29.923Z,101115.81
2023-04-28T23:26:58.289Z,101116.50
2023-04-28T23:29:27.031Z,101110.06
2023-04-28T23:31:55.695Z,101108.56
2023-04-28T23:34:24.328Z,101110.44
2023-04-28T23:36:52.708Z,101117.88
2023-04-28T23:39:21.028Z,101111.41
2023-04-28T23:41:49.362Z,101111.72
2023-04-28T23:44:18.112Z,101112.00
2023-04-28T23:46:46.766Z,101110.53
2023-04-28T23:49:14.992Z,101107.03
2023-04-28T23:51:43.817Z,101109.09
2023-04-28T23:54:12.489Z,101112.63
2023-04-28T23:56:40.757Z,101113.19
2023-04-28T23:59:09.252Z,101113.59
